Time;durP1;ratioP1;P1;durP2;ratioP2;P2;SDS_P1;SDS_P2;PMS_P1;PMS_P2;Temp;Humidity;BMP_temperature;BMP_pressure;BME280_temperature;BME280_humidity;BME280_pressure;Samples;Min_cycle;Max_cycle;Signal;HPM_P1;HPM_P2
2020/12/20 00:00:29;;;;;;;1.97;0.40;;;;;;;9.91;97.87;101132.09;4968548;28;20531;-76
2020/12/20 00:02:55;;;;;;;1.43;0.23;;;;;;;9.87;98.20;101130.44;4966073;28;20821;-75
2020/12/20 00:05:22;;;;;;;1.80;0.50;;;;;;;9.84;98.36;101123.03;4951437;28;20228;-77
2020/12/20 00:07:48;;;;;;;3.20;0.77;;;;;;;9.95;98.15;101126.81;4969749;28;20516;-76
2020/12/20 00:10:14;;;;;;;3.50;0.90;;;;;;;9.85;97.94;101127.31;4970692;28;20532;-76
2020/12/20 00:12:40;;;;;;;2.27;0.57;;;;;;;9.94;97.85;101133.34;4966426;28;20928;-76
2020/12/20 00:15:06;;;;;;;1.77;0.30;;;;;;;9.90;98.06;101132.44;4975513;28;20687;-76
2020/12/20 00:17:32;;;;;;;1.60;0.40;;;;;;;9.96;97.58;101136.47;4967648;28;20426;-76
2020/12/20 00:19:57;;;;;;;1.90;0.47;;;;;;;10.03;96.82;101134.78;4968016;28;20450;-76
2020/12/20 00:22:23;;;;;;;1.73;0.30;;;;;;;9.93;97.68;101146.00;4962050;28;20194;-76
2020/12/20 00:24:48;;;;;;;2.77;0.60;;;;;;;9.92;97.81;101140.97;4973635;28;20671;-76
2020/12/20 00:27:14;;;;;;;2.10;0.40;;;;;;;9.79;97.52;101147.47;4966517;28;20230;-77
2020/12/20 00:29:40;;;;;;;1.30;0.20;;;;;;;9.85;97.83;101141.53;4952178;28;20630;-77
2020/12/20 00:32:08;;;;;;;1.90;0.27;;;;;;;9.75;98.28;101146.59;4963965;28;20254;-76
2020/12/20 00:34:35;;;;;;;1.57;0.30;;;;;;;9.76;98.13;101132.78;4971951;28;20975;-76
2020/12/20 00:37:00;;;;;;;1.40;0.30;;;;;;;9.77;98.22;101142.44;4962141;28;20858;-76
2020/12/20 00:39:26;;;;;;;1.87;0.30;;;;;;;9.84;97.71;101144.56;4950991;28;20457;-76
2020/12/20 00:42:00;;;;;;;1.30;0.23;;;;;;;9.77;97.98;101139.75;4951945;28;20178;-77
2020/12/20 00:44:27;;;;;;;1.57;0.43;;;;;;;9.60;98.87;101144.56;4926524;28;20465;-76
2020/12/20 00:46:54;;;;;;;3.67;0.63;;;;;;;9.83;98.48;101140.31;4955960;28;20472;-77
2020/12/20 00:49:23;;;;;;;2.37;0.70;;;;;;;9.73;98.40;101148.81;4965615;28;20540;-76
2020/12/20 00:51:48;;;;;;;1.90;0.40;;;;;;;9.57;98.84;101145.22;4967319;28;20458;-76
2020/12/20 00:54:14;;;;;;;1.37;0.30;;;;;;;9.48;99.22;101148.03;4937866;28;20442;-75
2020/12/20 00:56:41;;;;;;;1.80;0.30;;;;;;;9.52;99.30;101145.47;4939301;28;20207;-78
2020/12/20 00:59:07;;;;;;;1.60;0.30;;;;;;;9.51;99.10;101157.31;4946974;29;20489;-75
2020/12/20 01:01:34;;;;;;;1.60;0.27;;;;;;;9.44;99.54;101157.88;4947395;28;20445;-76
2020/12/20 01:03:59;;;;;;;2.00;0.40;;;;;;;9.56;99.20;101157.13;4948167;28;21250;-77
2020/12/20 01:06:25;;;;;;;2.07;0.43;;;;;;;9.54;98.18;101159.34;4941491;28;20701;-75
2020/12/20 01:09:04;;;;;;;2.00;0.40;;;;;;;9.46;99.01;101166.41;4942928;28;20564;-77
2020/12/20 01:11:30;;;;;;;1.40;0.20;;;;;;;9.51;98.76;101168.06;4968056;28;21744;-76
2020/12/20 01:13:55;;;;;;;1.93;0.30;;;;;;;9.40;99.46;101172.31;4962492;28;20575;-76
2020/12/20 01:16:25;;;;;;;1.50;0.30;;;;;;;9.55;99.02;101167.06;4951588;28;20256;-75
2020/12/20 01:18:51;;;;;;;1.60;0.20;;;;;;;9.49;98.99;101163.03;4941281;28;20289;-77
2020/12/20 01:21:17;;;;;;;2.10;0.50;;;;;;;9.55;99.14;101163.59;4956917;28;20473;-76
2020/12/20 01:24:05;;;;;;;1.70;0.40;;;;;;;9.51;98.64;101174.22;4955881;28;20439;-76
2020/12/20 01:26:30;;;;;;;1.40;0.20;;;;;;;9.58;98.75;101174.47;4898589;29;20472;-76
2020/12/20 01:28:57;;;;;;;1.70;0.30;;;;;;;9.69;98.38;101169.44;4919097;29;20991;-77
2020/12/20 01:31:23;;;;;;;1.30;0.20;;;;;;;9.70;97.81;101171.78;4919061;29;20295;-76
2020/12/20 01:34:13;;;;;;;1.60;0.30;;;;;;;9.73;97.81;101164.97;4918910;29;20538;-77
2020/12/20 01:36:41;;;;;;;1.77;0.30;;;;;;;9.60;98.30;101166.09;4903245;29;20472;-76
2020/12/20 01:39:07;;;;;;;1.97;0.30;;;;;;;9.63;97.98;101155.44;4896373;29;20436;-77
2020/12/20 01:41:33;;;;;;;1.97;0.40;;;;;;;9.48;98.60;101163.38;4897660;29;20444;-76
2020/12/20 01:44:00;;;;;;;1.60;0.30;;;;;;;9.33;99.02;101178.22;4900060;29;20199;-76
2020/12/20 01:46:34;;;;;;;3.10;0.40;;;;;;;9.43;99.86;101167.06;4914235;29;20479;-76
2020/12/20 01:49:02;;;;;;;1.50;0.20;;;;;;;9.50;99.04;101182.63;4883466;29;20534;-76
2020/12/20 01:51:29;;;;;;;2.50;0.47;;;;;;;9.50;98.54;101179.94;4897874;29;20476;-76
2020/12/20 01:54:05;;;;;;;1.60;0.30;;;;;;;9.41;98.84;101169.28;4898674;29;20450;-75
2020/12/20 01:56:32;;;;;;;1.50;0.40;;;;;;;9.40;99.21;101173.13;4908661;29;20825;-76
2020/12/20 01:59:00;;;;;;;1.87;0.40;;;;;;;9.43;98.81;101177.81;4902775;29;20450;-76
2020/12/20 02:01:35;;;;;;;1.27;0.23;;;;;;;9.34;99.60;101179.03;4899046;29;20455;-76
2020/12/20 02:04:08;;;;;;;1.47;0.30;;;;;;;9.38;99.28;101177.25;4945072;28;20485;-74
2020/12/20 02:06:39;;;;;;;1.83;0.50;;;;;;;9.21;99.93;101180.91;4945217;28;20468;-76
2020/12/20 02:09:06;;;;;;;1.53;0.30;;;;;;;9.21;100.00;101182.81;4954622;28;20462;-76
2020/12/20 02:11:31;;;;;;;1.40;0.20;;;;;;;9.26;100.00;101171.84;4970752;28;20446;-76
2020/12/20 02:14:01;;;;;;;1.40;0.27;;;;;;;9.37;99.21;101173.00;4948991;28;20182;-76
2020/12/20 02:16:40;;;;;;;1.10;0.10;;;;;;;9.27;99.71;101168.81;4945475;28;20542;-76
2020/12/20 02:19:06;;;;;;;1.93;0.30;;;;;;;9.20;100.00;101168.56;4951270;28;20518;-76
2020/12/20 02:21:31;;;;;;;1.40;0.20;;;;;;;9.28;99.71;101169.59;4949262;28;20209;-76
2020/12/20 02:24:02;;;;;;;1.30;0.20;;;;;;;9.26;99.50;101171.84;4936635;28;20194;-75
2020/12/20 02:26:35;;;;;;;1.70;0.40;;;;;;;9.26;99.54;101169.16;4939063;28;20529;-76
2020/12/20 02:29:02;;;;;;;1.40;0.20;;;;;;;9.32;99.57;101175.88;4946122;28;21185;-76
2020/12/20 02:31:29;;;;;;;2.50;0.50;;;;;;;9.30;99.37;101172.75;4967227;28;20445;-76
2020/12/20 02:33:57;;;;;;;1.47;0.23;;;;;;;9.20;99.58;101173.16;4968144;28;20268;-75
2020/12/20 02:36:26;;;;;;;1.90;0.30;;;;;;;9.15;99.50;101166.13;4945455;28;20531;-76
2020/12/20 02:38:51;;;;;;;1.70;0.20;;;;;;;9.19;99.66;101172.41;4954557;28;20453;-75
2020/12/20 02:41:27;;;;;;;1.57;0.43;;;;;;;9.08;100.00;101172.00;4945442;28;20444;-74
2020/12/20 02:43:52;;;;;;;1.50;0.20;;;;;;;9.09;100.00;101164.75;4955470;28;20449;-76
2020/12/20 02:46:21;;;;;;;2.53;0.67;;;;;;;9.08;100.00;101158.59;4942965;28;20210;-75
2020/12/20 02:48:52;;;;;;;1.63;0.37;;;;;;;9.01;100.00;101155.66;4952389;28;20453;-76
2020/12/20 02:51:19;;;;;;;1.40;0.30;;;;;;;8.96;100.00;101163.91;4948799;28;20449;-75
2020/12/20 02:53:45;;;;;;;1.17;0.17;;;;;;;8.99;100.00;101157.09;4954131;28;20424;-75
2020/12/20 02:56:19;;;;;;;3.10;0.30;;;;;;;9.02;100.00;101156.44;4953337;28;20466;-76
2020/12/20 02:58:47;;;;;;;1.60;0.30;;;;;;;9.01;100.00;101158.34;4948374;28;20453;-76
2020/12/20 03:01:20;;;;;;;1.17;0.10;;;;;;;9.00;100.00;101159.44;4947007;28;20426;-75
2020/12/20 03:03:45;;;;;;;1.50;0.30;;;;;;;9.05;100.00;101166.53;4955097;28;20437;-76
2020/12/20 03:06:11;;;;;;;1.37;0.30;;;;;;;9.08;99.96;101163.97;4964941;28;20295;-75
2020/12/20 03:08:36;;;;;;;1.30;0.30;;;;;;;8.97;100.00;101162.81;4967314;28;20182;-76
2020/12/20 03:11:03;;;;;;;1.50;0.37;;;;;;;8.98;100.00;101167.06;4954127;28;20211;-76
2020/12/20 03:13:31;;;;;;;1.90;0.47;;;;;;;9.01;100.00;101163.72;4941454;28;20441;-74
2020/12/20 03:15:57;;;;;;;1.80;0.60;;;;;;;8.91;100.00;101166.03;4962235;28;20445;-76
2020/12/20 03:18:28;;;;;;;1.70;0.20;;;;;;;9.00;100.00;101153.31;4938059;28;20486;-76
2020/12/20 03:20:56;;;;;;;1.30;0.20;;;;;;;9.00;100.00;101162.13;4943072;28;20453;-76
2020/12/20 03:23:23;;;;;;;1.73;0.30;;;;;;;8.99;100.00;101155.22;4948024;28;20544;-76
2020/12/20 03:26:14;;;;;;;1.50;0.30;;;;;;;9.06;100.00;101158.13;4949329;28;20470;-76
2020/12/20 03:28:58;;;;;;;1.77;0.30;;;;;;;8.98;100.00;101156.31;4968514;28;20452;-76
2020/12/20 03:31:42;;;;;;;1.40;0.20;;;;;;;9.02;100.00;101154.53;4971262;28;20545;-76
2020/12/20 03:34:43;;;;;;;1.47;0.23;;;;;;;9.14;100.00;101150.34;4953195;28;20489;-76
2020/12/20 03:37:17;;;;;;;1.97;0.33;;;;;;;9.05;100.00;101153.88;4945695;28;20447;-75
2020/12/20 03:39:52;;;;;;;2.80;0.63;;;;;;;9.03;100.00;101152.63;4961554;28;20444;-76
2020/12/20 03:42:18;;;;;;;2.03;0.33;;;;;;;9.14;100.00;101153.03;4950198;28;20911;-75
2020/12/20 03:44:44;;;;;;;1.30;0.20;;;;;;;9.21;100.00;101148.66;4943942;28;20199;-76
2020/12/20 03:47:10;;;;;;;1.37;0.13;;;;;;;9.19;100.00;101152.78;4953207;28;20508;-75
2020/12/20 03:49:37;;;;;;;1.20;0.10;;;;;;;9.25;99.61;101156.84;4947966;28;20441;-75
2020/12/20 03:52:04;;;;;;;1.60;0.30;;;;;;;9.10;99.97;101159.03;4950130;28;20970;-75
2020/12/20 03:54:41;;;;;;;1.47;0.20;;;;;;;9.18;99.81;101159.28;4942906;28;20468;-76
2020/12/20 03:57:08;;;;;;;1.77;0.27;;;;;;;9.04;100.00;101160.38;4952804;28;20520;-76
2020/12/20 03:59:39;;;;;;;1.17;0.10;;;;;;;9.19;100.00;101164.34;4952435;28;20445;-76
2020/12/20 04:02:06;;;;;;;1.87;0.30;;;;;;;9.09;100.00;101160.16;4943909;28;20474;-76
2020/12/20 04:04:33;;;;;;;2.70;0.40;;;;;;;9.14;100.00;101161.06;4944353;28;20466;-76
2020/12/20 04:06:59;;;;;;;2.17;0.63;;;;;;;9.04;100.00;101163.03;4966202;28;20556;-76
2020/12/20 04:09:29;;;;;;;1.40;0.20;;;;;;;9.09;100.00;101157.47;4952363;28;20474;-76
2020/12/20 04:11:59;;;;;;;1.50;0.30;;;;;;;9.17;100.00;101171.94;4930791;28;20453;-74
2020/12/20 04:14:26;;;;;;;1.60;0.30;;;;;;;9.14;100.00;101169.13;4916379;28;20528;-76
2020/12/20 04:16:52;;;;;;;2.23;0.30;;;;;;;9.16;100.00;101175.72;4951413;28;20450;-76
2020/12/20 04:19:21;;;;;;;1.20;0.20;;;;;;;9.14;100.00;101180.66;4946357;28;20300;-76
2020/12/20 04:21:56;;;;;;;1.73;0.50;;;;;;;9.12;100.00;101182.88;4952164;28;20528;-76
2020/12/20 04:24:40;;;;;;;1.67;0.30;;;;;;;9.13;100.00;101180.97;4971216;28;20515;-76
2020/12/20 04:27:05;;;;;;;1.70;0.30;;;;;;;8.97;100.00;101172.75;4947380;28;20469;-76
2020/12/20 04:29:38;;;;;;;1.80;0.30;;;;;;;9.17;100.00;101180.00;4955196;28;20185;-76
2020/12/20 04:32:08;;;;;;;1.50;0.20;;;;;;;9.27;100.00;101176.09;4949943;28;20453;-76
2020/12/20 04:34:35;;;;;;;1.57;0.30;;;;;;;9.31;99.67;101175.09;4947014;28;20480;-76
2020/12/20 04:37:01;;;;;;;1.87;0.20;;;;;;;9.29;99.80;101171.94;4945049;28;20433;-76
2020/12/20 04:39:40;;;;;;;1.50;0.30;;;;;;;9.38;99.55;101163.81;4954081;28;20490;-76
2020/12/20 04:42:07;;;;;;;1.37;0.27;;;;;;;9.35;99.40;101167.94;4952743;28;20449;-76
2020/12/20 04:44:34;;;;;;;2.43;0.50;;;;;;;9.40;99.31;101167.72;4951631;28;20514;-76
2020/12/20 04:47:05;;;;;;;1.83;0.40;;;;;;;9.18;99.93;101170.00;4967132;28;20989;-76
2020/12/20 04:49:39;;;;;;;1.57;0.27;;;;;;;9.12;100.00;101176.75;4935954;28;20431;-75
2020/12/20 04:52:11;;;;;;;1.50;0.30;;;;;;;9.04;100.00;101171.09;4966398;28;20449;-74
2020/12/20 04:54:40;;;;;;;1.40;0.20;;;;;;;9.21;100.00;101169.38;4934767;28;20942;-76
2020/12/20 04:57:15;;;;;;;2.30;0.40;;;;;;;9.20;99.94;101162.41;4957912;28;20429;-75
2020/12/20 04:59:45;;;;;;;1.67;0.30;;;;;;;9.15;100.00;101171.50;4949713;28;20532;-75
2020/12/20 05:02:13;;;;;;;1.97;0.40;;;;;;;9.25;99.79;101175.66;4942780;28;20815;-76
2020/12/20 05:04:40;;;;;;;1.27;0.27;;;;;;;8.94;100.00;101193.00;4946250;28;20476;-76
2020/12/20 05:07:09;;;;;;;1.57;0.20;;;;;;;8.96;100.00;101187.31;4954484;28;20476;-76
2020/12/20 05:09:55;;;;;;;1.40;0.23;;;;;;;8.95;100.00;101185.75;4962837;28;20449;-75
2020/12/20 05:12:32;;;;;;;1.63;0.30;;;;;;;9.07;100.00;101189.25;4952392;28;20434;-75
2020/12/20 05:15:25;;;;;;;1.60;0.40;;;;;;;9.08;100.00;101188.13;4942330;28;20465;-76
2020/12/20 05:18:14;;;;;;;1.30;0.27;;;;;;;9.16;100.00;101194.53;4949280;28;20452;-76
2020/12/20 05:20:51;;;;;;;1.30;0.20;;;;;;;9.08;100.00;101192.72;4955165;28;20441;-75
2020/12/20 05:23:19;;;;;;;1.53;0.30;;;;;;;9.03;100.00;101192.94;4943385;28;20444;-75
2020/12/20 05:25:48;;;;;;;2.27;0.50;;;;;;;9.07;100.00;101188.47;4941668;28;20880;-76
2020/12/20 05:28:21;;;;;;;2.00;0.30;;;;;;;9.08;100.00;101182.75;4922992;28;20473;-75
2020/12/20 05:30:54;;;;;;;1.30;0.20;;;;;;;9.18;100.00;101186.94;4954673;28;20583;-76
2020/12/20 05:33:28;;;;;;;2.10;0.50;;;;;;;9.30;99.75;101188.88;4965461;28;20462;-75
2020/12/20 05:36:06;;;;;;;1.63;0.30;;;;;;;9.27;99.29;101184.16;4950541;28;20510;-76
2020/12/20 05:38:34;;;;;;;1.83;0.33;;;;;;;9.26;99.29;101180.69;4952353;29;20453;-76
2020/12/20 05:41:00;;;;;;;1.23;0.23;;;;;;;9.16;99.64;101185.69;4951974;28;20513;-74
2020/12/20 05:43:27;;;;;;;1.83;0.30;;;;;;;9.15;99.90;101194.88;4953120;28;20477;-76
2020/12/20 05:46:00;;;;;;;1.27;0.27;;;;;;;9.20;99.63;101183.91;4951031;28;20473;-76
2020/12/20 05:48:42;;;;;;;2.30;0.50;;;;;;;8.90;100.00;101186.72;4954493;28;20429;-76
2020/12/20 05:51:11;;;;;;;1.40;0.20;;;;;;;8.88;100.00;101199.69;4947520;28;20445;-76
2020/12/20 05:53:38;;;;;;;2.07;0.47;;;;;;;8.87;100.00;101191.97;4969895;28;20510;-76
2020/12/20 05:56:04;;;;;;;1.53;0.23;;;;;;;8.84;100.00;101200.69;4969346;28;20536;-76
2020/12/20 05:58:32;;;;;;;1.60;0.40;;;;;;;9.05;100.00;101204.13;4932397;28;20193;-75
2020/12/20 06:00:58;;;;;;;1.97;0.30;;;;;;;9.17;100.00;101195.31;4948622;28;20189;-76
2020/12/20 06:03:25;;;;;;;1.70;0.20;;;;;;;9.08;99.99;101201.56;4954182;28;20458;-75
2020/12/20 06:05:51;;;;;;;1.63;0.33;;;;;;;9.14;99.70;101199.44;4966799;28;20830;-76
2020/12/20 06:08:18;;;;;;;1.43;0.30;;;;;;;9.17;99.12;101203.38;4946198;28;20520;-76
2020/12/20 06:10:46;;;;;;;1.60;0.30;;;;;;;9.12;99.15;101203.59;4970513;28;20395;-75
2020/12/20 06:13:18;;;;;;;1.60;0.20;;;;;;;9.05;99.62;101204.94;4952372;28;20449;-75
2020/12/20 06:15:45;;;;;;;1.70;0.30;;;;;;;9.08;99.21;101209.63;4964759;28;20479;-76
2020/12/20 06:18:15;;;;;;;1.43;0.20;;;;;;;9.02;99.46;101205.56;4969555;28;20507;-76
2020/12/20 06:20:49;;;;;;;1.60;0.30;;;;;;;8.98;99.96;101211.97;4970406;28;20454;-76
2020/12/20 06:23:21;;;;;;;1.90;0.20;;;;;;;8.96;100.00;101214.19;4972528;28;20448;-76
2020/12/20 06:25:47;;;;;;;1.20;0.20;;;;;;;8.89;100.00;101206.66;4969552;28;20469;-76
2020/12/20 06:28:18;;;;;;;1.30;0.17;;;;;;;8.97;100.00;101213.84;4968406;28;20476;-76
2020/12/20 06:30:45;;;;;;;2.00;0.30;;;;;;;8.99;99.85;101213.50;4937656;28;20453;-76
2020/12/20 06:33:24;;;;;;;1.30;0.10;;;;;;;8.77;100.00;101217.31;4951502;28;20447;-75
2020/12/20 06:35:52;;;;;;;1.87;0.40;;;;;;;8.87;100.00;101216.94;4929622;28;20488;-75
2020/12/20 06:38:26;;;;;;;1.40;0.30;;;;;;;8.85;100.00;101204.94;4971907;28;20432;-76
2020/12/20 06:40:52;;;;;;;1.57;0.30;;;;;;;8.98;99.41;101206.59;4971552;28;20449;-75
2020/12/20 06:43:37;;;;;;;2.40;0.30;;;;;;;8.93;99.63;101204.09;4963899;28;20842;-76
2020/12/20 06:46:06;;;;;;;1.47;0.30;;;;;;;8.60;100.00;101203.25;4953563;28;20341;-75
2020/12/20 06:48:34;;;;;;;1.73;0.40;;;;;;;8.78;100.00;101215.44;4964582;28;20446;-76
2020/12/20 06:51:02;;;;;;;1.50;0.30;;;;;;;8.99;100.00;101206.25;4967615;28;20478;-76
2020/12/20 06:53:45;;;;;;;1.30;0.17;;;;;;;8.93;99.65;101206.75;4968028;28;20453;-76
2020/12/20 06:56:18;;;;;;;1.67;0.33;;;;;;;8.89;99.50;101201.28;4970808;28;20457;-76
2020/12/20 06:58:44;;;;;;;1.80;0.50;;;;;;;8.94;99.43;101203.75;4967742;28;20544;-76
2020/12/20 07:01:10;;;;;;;1.87;0.40;;;;;;;8.83;99.49;101202.59;4970610;28;20455;-75
2020/12/20 07:03:38;;;;;;;1.97;0.30;;;;;;;8.81;99.92;101201.34;4948180;28;20442;-76
2020/12/20 07:06:06;;;;;;;2.57;0.60;;;;;;;8.79;99.98;101196.31;4953747;28;20281;-76
2020/12/20 07:08:33;;;;;;;1.60;0.37;;;;;;;8.67;100.00;101201.59;4945625;28;20465;-75
2020/12/20 07:11:00;;;;;;;1.80;0.30;;;;;;;8.82;100.00;101205.59;4961590;28;20476;-74
2020/12/20 07:13:39;;;;;;;2.20;0.50;;;;;;;8.72;99.92;101214.06;4963668;28;20446;-76
2020/12/20 07:16:08;;;;;;;1.80;0.40;;;;;;;8.76;100.00;101215.78;4951184;28;20467;-76
2020/12/20 07:18:47;;;;;;;1.70;0.50;;;;;;;8.83;99.56;101221.38;4967706;28;20430;-76
2020/12/20 07:21:52;;;;;;;1.53;0.30;;;;;;;8.74;99.80;101209.16;4948327;28;20454;-76
2020/12/20 07:24:19;;;;;;;2.00;0.30;;;;;;;8.77;100.00;101203.09;4952335;28;20449;-76
2020/12/20 07:26:51;;;;;;;1.70;0.37;;;;;;;8.82;100.00;101210.97;4968551;28;20474;-73
2020/12/20 07:29:17;;;;;;;2.07;0.40;;;;;;;8.77;99.35;101197.72;4962118;28;20504;-76
2020/12/20 07:31:51;;;;;;;1.53;0.20;;;;;;;8.80;99.84;101208.63;4952727;28;20451;-76
2020/12/20 07:34:16;;;;;;;1.50;0.30;;;;;;;8.76;99.31;101213.09;4950638;28;20973;-76
2020/12/20 07:36:42;;;;;;;1.70;0.40;;;;;;;8.92;99.39;101213.28;4966586;28;20435;-76
2020/12/20 07:39:08;;;;;;;1.40;0.23;;;;;;;8.86;98.90;101210.00;4952111;28;20357;-76
2020/12/20 07:41:35;;;;;;;1.60;0.20;;;;;;;8.88;98.79;101210.44;4963163;28;20529;-76
2020/12/20 07:44:08;;;;;;;1.57;0.20;;;;;;;8.85;98.79;101213.78;4968292;28;21041;-76
2020/12/20 07:46:34;;;;;;;1.57;0.30;;;;;;;8.79;99.21;101215.09;4969529;28;20461;-76
2020/12/20 07:49:08;;;;;;;1.50;0.20;;;;;;;8.86;98.82;101218.06;4967882;28;20826;-74
2020/12/20 07:51:34;;;;;;;1.60;0.30;;;;;;;8.75;99.22;101219.56;4965928;28;20450;-76
2020/12/20 07:54:01;;;;;;;2.13;0.33;;;;;;;8.74;99.26;101223.38;4969376;28;20430;-76
2020/12/20 07:56:27;;;;;;;1.40;0.30;;;;;;;8.81;99.42;101231.66;4972632;28;20437;-76
2020/12/20 07:59:04;;;;;;;1.70;0.30;;;;;;;8.81;99.24;101234.34;4966770;28;20588;-75
2020/12/20 08:01:30;;;;;;;1.50;0.23;;;;;;;8.69;99.84;101231.59;4970392;28;20182;-76
2020/12/20 08:04:09;;;;;;;2.80;0.50;;;;;;;8.60;100.00;101228.19;4954539;28;20437;-74
2020/12/20 08:06:39;;;;;;;2.10;0.30;;;;;;;8.74;100.00;101225.25;4963951;28;20213;-76
2020/12/20 08:09:22;;;;;;;1.80;0.27;;;;;;;8.72;100.00;101232.84;4967623;28;20468;-75
2020/12/20 08:11:49;;;;;;;1.40;0.20;;;;;;;8.67;100.00;101236.50;4957215;28;20453;-77
2020/12/20 08:14:17;;;;;;;2.00;0.43;;;;;;;8.81;99.75;101234.34;4968915;28;20940;-76
2020/12/20 08:16:44;;;;;;;2.40;0.50;;;;;;;8.86;99.77;101233.38;4967288;28;20491;-75
2020/12/20 08:19:16;;;;;;;1.83;0.50;;;;;;;8.91;98.93;101236.66;4969151;28;20438;-76
2020/12/20 08:22:02;;;;;;;1.20;0.20;;;;;;;8.95;99.06;101236.78;4965452;28;20445;-76
2020/12/20 08:24:48;;;;;;;1.67;0.20;;;;;;;8.75;99.82;101234.91;4948521;29;20544;-76
2020/12/20 08:27:17;;;;;;;2.37;0.47;;;;;;;8.81;99.77;101246.97;4963560;28;20500;-76
2020/12/20 08:29:47;;;;;;;1.60;0.40;;;;;;;8.76;100.00;101247.19;4971338;28;20489;-76
2020/12/20 08:32:18;;;;;;;1.50;0.30;;;;;;;8.91;99.75;101252.75;4932952;28;20488;-76
2020/12/20 08:34:44;;;;;;;2.30;0.53;;;;;;;8.73;99.76;101253.22;4963504;28;20465;-75
2020/12/20 08:37:12;;;;;;;1.43;0.23;;;;;;;8.85;99.69;101253.28;4954977;28;20954;-76
2020/12/20 08:39:58;;;;;;;2.43;0.67;;;;;;;8.83;99.97;101242.88;4963393;28;20185;-75
2020/12/20 08:42:23;;;;;;;2.80;0.80;;;;;;;8.92;99.79;101246.25;4874102;29;20457;-76
2020/12/20 08:44:49;;;;;;;2.73;0.70;;;;;;;8.94;99.34;101244.03;4882256;29;21038;-76
2020/12/20 08:47:18;;;;;;;2.40;0.60;;;;;;;8.99;99.22;101243.84;4855807;29;21076;-76
2020/12/20 08:49:59;;;;;;;1.63;0.47;;;;;;;8.94;99.37;101246.72;4886040;29;20896;-75
2020/12/20 08:52:29;;;;;;;1.73;0.30;;;;;;;8.98;99.29;101246.88;4860646;29;20859;-76
2020/12/20 08:54:56;;;;;;;2.50;0.77;;;;;;;9.09;98.98;101248.03;4873927;29;20482;-76
2020/12/20 08:57:32;;;;;;;1.70;0.30;;;;;;;8.86;99.43;101244.91;4881479;29;20477;-76
2020/12/20 09:00:14;;;;;;;2.03;0.40;;;;;;;8.87;99.77;101238.41;4875613;29;20489;-76
2020/12/20 09:02:41;;;;;;;2.30;0.50;;;;;;;8.93;99.65;101242.47;4864736;29;20888;-76
2020/12/20 09:05:14;;;;;;;2.63;0.70;;;;;;;8.73;100.00;101243.25;4855819;29;20470;-76
2020/12/20 09:08:06;;;;;;;2.40;0.40;;;;;;;8.78;100.00;101245.75;4883682;29;20481;-75
2020/12/20 09:10:34;;;;;;;1.40;0.37;;;;;;;8.93;100.00;101239.00;4815227;29;20456;-78
2020/12/20 09:13:02;;;;;;;1.70;0.40;;;;;;;8.97;99.60;101245.28;4813793;29;20472;-76
2020/12/20 09:15:28;;;;;;;1.73;0.40;;;;;;;9.00;99.53;101248.09;4803926;29;20469;-76
2020/12/20 09:17:55;;;;;;;1.57;0.40;;;;;;;8.92;99.95;101248.94;4789307;29;20460;-75
2020/12/20 09:20:23;;;;;;;1.87;0.43;;;;;;;9.15;99.47;101251.28;4882149;29;20226;-76
2020/12/20 09:22:53;;;;;;;2.33;0.40;;;;;;;9.18;98.91;101251.41;4881356;29;20444;-78
2020/12/20 09:25:43;;;;;;;1.80;0.40;;;;;;;9.15;98.99;101253.97;4872179;29;20559;-76
2020/12/20 09:28:14;;;;;;;1.60;0.30;;;;;;;9.09;99.43;101254.19;4892236;29;20474;-75
2020/12/20 09:30:44;;;;;;;2.40;0.70;;;;;;;9.09;99.41;101254.19;4890307;29;20460;-76
2020/12/20 09:33:33;;;;;;;2.40;0.43;;;;;;;8.95;99.80;101252.88;4901213;29;20479;-75
2020/12/20 09:36:05;;;;;;;1.30;0.27;;;;;;;9.06;100.00;101260.22;4890429;29;20567;-76
2020/12/20 09:38:43;;;;;;;2.00;0.53;;;;;;;9.06;99.84;101262.09;4866566;29;20453;-76
2020/12/20 09:41:12;;;;;;;2.27;0.80;;;;;;;9.07;100.00;101266.38;4891345;29;20512;-76
2020/12/20 09:43:40;;;;;;;1.80;0.60;;;;;;;8.96;100.00;101255.22;4896556;29;20461;-76
2020/12/20 09:46:17;;;;;;;3.00;0.70;;;;;;;8.88;100.00;101258.78;4891193;29;20475;-76
2020/12/20 09:48:42;;;;;;;2.60;0.43;;;;;;;8.94;100.00;101257.47;4969531;28;20460;-75
2020/12/20 09:51:30;;;;;;;2.07;0.40;;;;;;;8.95;100.00;101250.19;4951636;28;20441;-77
2020/12/20 09:53:56;;;;;;;1.93;0.50;;;;;;;9.13;100.00;101253.53;4913573;29;20243;-76
2020/12/20 09:56:21;;;;;;;1.63;0.40;;;;;;;9.18;100.00;101250.63;4890346;29;20527;-76
2020/12/20 09:58:47;;;;;;;1.60;0.20;;;;;;;9.20;99.85;101243.81;4915374;29;22514;-76
2020/12/20 10:01:20;;;;;;;1.87;0.40;;;;;;;9.34;99.78;101251.59;4910555;29;20201;-76
2020/12/20 10:03:46;;;;;;;3.00;0.50;;;;;;;9.32;99.32;101243.06;4909781;29;20936;-75
2020/12/20 10:06:14;;;;;;;1.57;0.40;;;;;;;9.40;99.05;101236.81;4896203;29;20464;-76
2020/12/20 10:08:40;;;;;;;2.70;0.40;;;;;;;9.27;98.96;101230.63;4911294;29;20452;-75
2020/12/20 10:11:08;;;;;;;2.43;0.70;;;;;;;9.25;99.45;101249.00;4910044;29;20504;-76
2020/12/20 10:13:33;;;;;;;2.90;0.57;;;;;;;9.17;99.99;101243.69;4914081;29;20448;-76
2020/12/20 10:15:59;;;;;;;2.37;0.60;;;;;;;9.25;99.86;101249.00;4897558;29;20472;-76
2020/12/20 10:18:24;;;;;;;1.77;0.47;;;;;;;9.30;99.64;101238.03;4912889;29;20185;-76
2020/12/20 10:20:50;;;;;;;1.77;0.33;;;;;;;9.34;99.54;101241.63;4896397;29;20267;-76
2020/12/20 10:23:15;;;;;;;2.07;0.63;;;;;;;9.36;99.60;101233.22;4896876;29;20219;-76
2020/12/20 10:25:41;;;;;;;2.03;0.30;;;;;;;9.23;99.90;101245.06;4912050;29;20920;-76
2020/12/20 10:28:09;;;;;;;2.13;0.50;;;;;;;9.12;100.00;101233.94;4912764;29;20219;-76
2020/12/20 10:30:36;;;;;;;2.10;0.70;;;;;;;9.31;100.00;101234.22;4934202;28;20233;-77
2020/12/20 10:33:02;;;;;;;1.53;0.33;;;;;;;9.29;99.77;101241.06;4955966;28;20508;-77
2020/12/20 10:35:27;;;;;;;2.77;0.60;;;;;;;9.36;100.00;101241.28;4947366;28;20453;-76
2020/12/20 10:37:56;;;;;;;1.63;0.43;;;;;;;9.31;100.00;101238.81;4961855;28;20185;-75
2020/12/20 10:40:24;;;;;;;2.43;0.53;;;;;;;9.38;100.00;101228.31;4969788;28;20244;-77
2020/12/20 10:42:50;;;;;;;1.93;0.40;;;;;;;9.20;100.00;101229.59;4966260;28;20438;-75
2020/12/20 10:45:16;;;;;;;3.53;1.17;;;;;;;9.35;100.00;101224.38;4961634;28;20509;-76
2020/12/20 10:47:42;;;;;;;2.37;0.80;;;;;;;9.49;99.84;101222.19;4968010;28;20552;-76
2020/12/20 10:50:08;;;;;;;3.33;0.80;;;;;;;9.26;100.00;101226.38;4970638;28;20989;-77
2020/12/20 10:52:34;;;;;;;2.07;0.50;;;;;;;9.38;100.00;101229.09;4970374;28;20941;-76
2020/12/20 10:55:02;;;;;;;2.67;0.50;;;;;;;9.44;100.00;101229.66;4968615;28;20744;-76
2020/12/20 10:57:27;;;;;;;3.00;0.43;;;;;;;9.43;100.00;101231.56;4963974;28;20484;-76
2020/12/20 10:59:53;;;;;;;1.37;0.33;;;;;;;9.44;100.00;101229.66;4963265;28;20531;-75
2020/12/20 11:02:19;;;;;;;2.30;0.57;;;;;;;9.48;100.00;101222.50;4961557;28;21729;-76
2020/12/20 11:04:45;;;;;;;3.10;0.60;;;;;;;9.45;100.00;101225.84;4920960;28;20605;-77
2020/12/20 11:07:10;;;;;;;2.37;0.60;;;;;;;9.50;100.00;101225.66;4963837;28;20472;-76
2020/12/20 11:09:36;;;;;;;1.73;0.77;;;;;;;9.40;100.00;101226.06;4966766;28;20178;-77
2020/12/20 11:12:04;;;;;;;1.50;0.30;;;;;;;9.61;100.00;101226.78;4966968;28;20209;-76
2020/12/20 11:14:32;;;;;;;2.07;0.60;;;;;;;9.59;99.97;101218.28;4964963;28;20233;-76
2020/12/20 11:16:58;;;;;;;1.90;0.33;;;;;;;9.72;99.79;101222.53;4960842;28;20430;-76
2020/12/20 11:19:24;;;;;;;2.83;0.53;;;;;;;9.48;100.00;101211.75;4960681;28;20457;-76
2020/12/20 11:21:51;;;;;;;2.60;0.60;;;;;;;9.58;100.00;101214.78;4939810;28;20431;-76
2020/12/20 11:24:17;;;;;;;2.77;0.73;;;;;;;9.62;100.00;101213.00;4966321;28;20186;-77
2020/12/20 11:26:47;;;;;;;2.30;0.50;;;;;;;9.53;100.00;101204.25;4968873;28;21258;-76
2020/12/20 11:29:13;;;;;;;1.70;0.50;;;;;;;9.72;100.00;101211.78;4964743;28;20465;-76
2020/12/20 11:31:39;;;;;;;1.87;0.47;;;;;;;9.80;100.00;101205.50;4932745;28;20445;-76
2020/12/20 11:34:14;;;;;;;1.50;0.33;;;;;;;9.64;100.00;101220.75;4949358;28;20450;-76
2020/12/20 11:36:41;;;;;;;1.50;0.37;;;;;;;9.49;100.00;101224.88;4967767;28;20643;-77
2020/12/20 11:39:09;;;;;;;1.53;0.40;;;;;;;9.65;100.00;101215.03;4961157;28;20425;-76
2020/12/20 11:41:35;;;;;;;2.00;0.47;;;;;;;9.69;100.00;101212.47;4969962;28;20926;-77